sensor_id;sensor_type;location;lat;lon;timestamp;temperature;humidity
71173;DHT22;58875;51.996;4.504;2023-02-15T00:01:52;4.07;82.54
71173;DHT22;58875;51.996;4.504;2023-02-15T00:04:22;4.06;82.46
71173;DHT22;58875;51.996;4.504;2023-02-15T00:06:48;3.99;82.54
71173;DHT22;58875;51.996;4.504;2023-02-15T00:09:14;3.95;82.54
71173;DHT22;58875;51.996;4.504;2023-02-15T00:11:40;3.95;82.61
71173;DHT22;58875;51.996;4.504;2023-02-15T00:14:22;3.93;82.56
71173;DHT22;58875;51.996;4.504;2023-02-15T00:16:49;3.89;82.62
71173;DHT22;58875;51.996;4.504;2023-02-15T00:19:17;3.87;82.53
71173;DHT22;58875;51.996;4.504;2023-02-15T00:21:43;3.83;82.63
71173;DHT22;58875;51.996;4.504;2023-02-15T00:24:12;3.86;82.68
71173;DHT22;58875;51.996;4.504;2023-02-15T00:26:39;3.90;82.65
71173;DHT22;58875;51.996;4.504;2023-02-15T00:29:05;3.87;82.50
71173;DHT22;58875;51.996;4.504;2023-02-15T00:31:32;3.89;82.56
71173;DHT22;58875;51.996;4.504;2023-02-15T00:36:27;3.75;82.72
71173;DHT22;58875;51.996;4.504;2023-02-15T00:38:52;3.72;82.78
71173;DHT22;58875;51.996;4.504;2023-02-15T00:41:19;3.69;83.00
71173;DHT22;58875;51.996;4.504;2023-02-15T00:43:44;3.65;82.96
71173;DHT22;58875;51.996;4.504;2023-02-15T00:46:10;3.66;83.08
71173;DHT22;58875;51.996;4.504;2023-02-15T00:48:35;3.68;83.00
71173;DHT22;58875;51.996;4.504;2023-02-15T00:51:01;3.65;82.87
71173;DHT22;58875;51.996;4.504;2023-02-15T00:53:28;3.64;82.84
71173;DHT22;58875;51.996;4.504;2023-02-15T00:55:54;3.61;82.73
71173;DHT22;58875;51.996;4.504;2023-02-15T00:58:20;3.64;82.80
71173;DHT22;58875;51.996;4.504;2023-02-15T01:00:47;3.58;82.66
71173;DHT22;58875;51.996;4.504;2023-02-15T01:03:15;3.52;83.10
71173;DHT22;58875;51.996;4.504;2023-02-15T01:05:41;3.54;83.14
71173;DHT22;58875;51.996;4.504;2023-02-15T01:08:06;3.58;83.11
71173;DHT22;58875;51.996;4.504;2023-02-15T01:10:33;3.55;83.07
71173;DHT22;58875;51.996;4.504;2023-02-15T01:12:59;3.54;83.00
71173;DHT22;58875;51.996;4.504;2023-02-15T01:15:25;3.58;82.98
71173;DHT22;58875;51.996;4.504;2023-02-15T01:17:50;3.62;82.94
71173;DHT22;58875;51.996;4.504;2023-02-15T01:20:24;3.59;82.94
71173;DHT22;58875;51.996;4.504;2023-02-15T01:22:51;3.62;82.90
71173;DHT22;58875;51.996;4.504;2023-02-15T01:25:17;3.59;82.91
71173;DHT22;58875;51.996;4.504;2023-02-15T01:27:43;3.56;82.90
71173;DHT22;58875;51.996;4.504;2023-02-15T01:30:10;3.58;82.96
71173;DHT22;58875;51.996;4.504;2023-02-15T01:32:36;3.56;82.92
71173;DHT22;58875;51.996;4.504;2023-02-15T01:35:02;3.54;82.93
71173;DHT22;58875;51.996;4.504;2023-02-15T01:37:30;3.52;82.94
71173;DHT22;58875;51.996;4.504;2023-02-15T01:39:55;3.52;82.97
71173;DHT22;58875;51.996;4.504;2023-02-15T01:42:25;3.45;82.94
71173;DHT22;58875;51.996;4.504;2023-02-15T01:47:38;3.38;82.97
71173;DHT22;58875;51.996;4.504;2023-02-15T01:50:16;3.35;83.05
71173;DHT22;58875;51.996;4.504;2023-02-15T01:55:46;3.35;82.86
71173;DHT22;58875;51.996;4.504;2023-02-15T01:58:12;3.28;82.95
71173;DHT22;58875;51.996;4.504;2023-02-15T02:00:39;3.30;83.01
71173;DHT22;58875;51.996;4.504;2023-02-15T02:03:05;3.30;83.14
71173;DHT22;58875;51.996;4.504;2023-02-15T02:05:32;3.34;83.04
71173;DHT22;58875;51.996;4.504;2023-02-15T02:08:01;3.30;83.16
71173;DHT22;58875;51.996;4.504;2023-02-15T02:10:27;3.25;83.10
71173;DHT22;58875;51.996;4.504;2023-02-15T02:13:02;3.24;83.08
71173;DHT22;58875;51.996;4.504;2023-02-15T02:15:54;3.21;83.03
71173;DHT22;58875;51.996;4.504;2023-02-15T02:18:58;3.18;82.89
71173;DHT22;58875;51.996;4.504;2023-02-15T02:21:36;3.11;82.85
71173;DHT22;58875;51.996;4.504;2023-02-15T02:38:39;2.94;82.83
71173;DHT22;58875;51.996;4.504;2023-02-15T02:43:54;2.86;82.51
71173;DHT22;58875;51.996;4.504;2023-02-15T02:46:30;2.84;82.54
71173;DHT22;58875;51.996;4.504;2023-02-15T02:48:57;2.82;82.57
71173;DHT22;58875;51.996;4.504;2023-02-15T02:51:23;2.79;82.69
71173;DHT22;58875;51.996;4.504;2023-02-15T02:53:56;2.80;82.78
71173;DHT22;58875;51.996;4.504;2023-02-15T02:59:33;2.83;82.82
71173;DHT22;58875;51.996;4.504;2023-02-15T03:02:11;2.82;82.73
71173;DHT22;58875;51.996;4.504;2023-02-15T03:04:43;2.77;82.68
71173;DHT22;58875;51.996;4.504;2023-02-15T03:07:15;2.76;82.67
71173;DHT22;58875;51.996;4.504;2023-02-15T03:09:53;2.77;82.57
71173;DHT22;58875;51.996;4.504;2023-02-15T03:12:33;2.73;82.55
71173;DHT22;58875;51.996;4.504;2023-02-15T03:17:45;2.72;82.47
71173;DHT22;58875;51.996;4.504;2023-02-15T03:20:29;2.69;82.51
71173;DHT22;58875;51.996;4.504;2023-02-15T03:23:04;2.69;82.51
71173;DHT22;58875;51.996;4.504;2023-02-15T03:25:40;2.66;82.61
71173;DHT22;58875;51.996;4.504;2023-02-15T03:28:11;2.66;82.87
71173;DHT22;58875;51.996;4.504;2023-02-15T03:30:42;2.69;82.92
71173;DHT22;58875;51.996;4.504;2023-02-15T03:33:10;2.69;82.90
71173;DHT22;58875;51.996;4.504;2023-02-15T03:35:52;2.71;82.91
71173;DHT22;58875;51.996;4.504;2023-02-15T03:38:33;2.75;83.03
71173;DHT22;58875;51.996;4.504;2023-02-15T03:41:04;2.73;82.96
71173;DHT22;58875;51.996;4.504;2023-02-15T03:43:57;2.71;82.80
71173;DHT22;58875;51.996;4.504;2023-02-15T03:49:14;2.67;82.80
71173;DHT22;58875;51.996;4.504;2023-02-15T03:51:45;2.63;82.75
71173;DHT22;58875;51.996;4.504;2023-02-15T03:57:04;2.57;82.53
71173;DHT22;58875;51.996;4.504;2023-02-15T03:59:49;2.50;82.68
71173;DHT22;58875;51.996;4.504;2023-02-15T04:02:48;2.50;82.76
71173;DHT22;58875;51.996;4.504;2023-02-15T04:05:17;2.49;83.21
71173;DHT22;58875;51.996;4.504;2023-02-15T04:07:43;2.57;83.48
71173;DHT22;58875;51.996;4.504;2023-02-15T04:10:08;2.71;83.56
71173;DHT22;58875;51.996;4.504;2023-02-15T04:12:53;2.87;83.88
71173;DHT22;58875;51.996;4.504;2023-02-15T04:15:18;2.96;83.61
71173;DHT22;58875;51.996;4.504;2023-02-15T04:18:03;2.94;83.53
71173;DHT22;58875;51.996;4.504;2023-02-15T04:20:28;2.89;83.33
71173;DHT22;58875;51.996;4.504;2023-02-15T04:23:12;2.89;83.36
71173;DHT22;58875;51.996;4.504;2023-02-15T04:25:56;2.89;83.63
71173;DHT22;58875;51.996;4.504;2023-02-15T04:28:22;2.94;83.53
71173;DHT22;58875;51.996;4.504;2023-02-15T04:30:47;2.93;83.38
71173;DHT22;58875;51.996;4.504;2023-02-15T04:33:13;2.90;83.32
71173;DHT22;58875;51.996;4.504;2023-02-15T04:35:38;2.90;83.59
71173;DHT22;58875;51.996;4.504;2023-02-15T04:38:04;2.86;83.43
71173;DHT22;58875;51.996;4.504;2023-02-15T04:40:29;2.76;83.46
71173;DHT22;58875;51.996;4.504;2023-02-15T04:42:55;2.76;83.54
71173;DHT22;58875;51.996;4.504;2023-02-15T04:45:21;2.73;83.51
71173;DHT22;58875;51.996;4.504;2023-02-15T04:47:46;2.71;83.41
71173;DHT22;58875;51.996;4.504;2023-02-15T04:50:12;2.72;83.44
71173;DHT22;58875;51.996;4.504;2023-02-15T04:52:37;2.73;83.49
71173;DHT22;58875;51.996;4.504;2023-02-15T04:55:03;2.71;83.42
71173;DHT22;58875;51.996;4.504;2023-02-15T04:57:29;2.67;83.42
71173;DHT22;58875;51.996;4.504;2023-02-15T04:59:54;2.66;83.38
71173;DHT22;58875;51.996;4.504;2023-02-15T05:02:20;2.62;83.25
71173;DHT22;58875;51.996;4.504;2023-02-15T05:04:46;2.56;83.24
71173;DHT22;58875;51.996;4.504;2023-02-15T05:07:12;2.56;83.20
71173;DHT22;58875;51.996;4.504;2023-02-15T05:09:37;2.52;83.22
71173;DHT22;58875;51.996;4.504;2023-02-15T05:12:03;2.46;83.17
71173;DHT22;58875;51.996;4.504;2023-02-15T05:14:28;2.39;83.22
71173;DHT22;58875;51.996;4.504;2023-02-15T05:16:54;2.41;83.31
71173;DHT22;58875;51.996;4.504;2023-02-15T05:19:19;2.36;83.18
71173;DHT22;58875;51.996;4.504;2023-02-15T05:21:45;2.35;83.14
71173;DHT22;58875;51.996;4.504;2023-02-15T05:24:10;2.31;83.08
71173;DHT22;58875;51.996;4.504;2023-02-15T05:26:55;2.26;83.10
71173;DHT22;58875;51.996;4.504;2023-02-15T05:29:38;2.20;83.05
71173;DHT22;58875;51.996;4.504;2023-02-15T05:32:04;2.24;83.18
71173;DHT22;58875;51.996;4.504;2023-02-15T05:34:30;2.22;83.23
71173;DHT22;58875;51.996;4.504;2023-02-15T05:36:55;2.20;83.23
71173;DHT22;58875;51.996;4.504;2023-02-15T05:39:21;2.15;83.47
71173;DHT22;58875;51.996;4.504;2023-02-15T05:41:46;2.18;83.51
71173;DHT22;58875;51.996;4.504;2023-02-15T05:44:12;2.25;83.83
71173;DHT22;58875;51.996;4.504;2023-02-15T05:46:37;2.36;84.27
71173;DHT22;58875;51.996;4.504;2023-02-15T05:49:03;2.44;84.26
71173;DHT22;58875;51.996;4.504;2023-02-15T05:51:28;2.56;84.55
71173;DHT22;58875;51.996;4.504;2023-02-15T05:53:54;2.59;84.30
71173;DHT22;58875;51.996;4.504;2023-02-15T05:56:19;2.66;84.46
71173;DHT22;58875;51.996;4.504;2023-02-15T05:58:45;2.71;84.25
71173;DHT22;58875;51.996;4.504;2023-02-15T06:01:13;2.75;84.31
71173;DHT22;58875;51.996;4.504;2023-02-15T06:03:40;2.72;84.01
71173;DHT22;58875;51.996;4.504;2023-02-15T06:06:06;2.66;83.94
71173;DHT22;58875;51.996;4.504;2023-02-15T06:08:33;2.59;84.04
71173;DHT22;58875;51.996;4.504;2023-02-15T06:10:58;2.57;84.08
71173;DHT22;58875;51.996;4.504;2023-02-15T06:13:24;2.57;84.10
71173;DHT22;58875;51.996;4.504;2023-02-15T06:15:49;2.62;84.31
71173;DHT22;58875;51.996;4.504;2023-02-15T06:18:15;2.60;84.14
71173;DHT22;58875;51.996;4.504;2023-02-15T06:20:40;2.62;84.34
71173;DHT22;58875;51.996;4.504;2023-02-15T06:23:06;2.63;84.30
71173;DHT22;58875;51.996;4.504;2023-02-15T06:25:31;2.65;84.44
71173;DHT22;58875;51.996;4.504;2023-02-15T06:27:57;2.71;84.25
71173;DHT22;58875;51.996;4.504;2023-02-15T06:30:23;2.63;84.01
71173;DHT22;58875;51.996;4.504;2023-02-15T06:32:48;2.53;83.93
71173;DHT22;58875;51.996;4.504;2023-02-15T06:35:14;2.52;84.09
71173;DHT22;58875;51.996;4.504;2023-02-15T06:37:39;2.50;83.87
71173;DHT22;58875;51.996;4.504;2023-02-15T06:40:06;2.49;83.92
71173;DHT22;58875;51.996;4.504;2023-02-15T06:42:32;2.50;83.85
71173;DHT22;58875;51.996;4.504;2023-02-15T06:44:57;2.45;83.85
71173;DHT22;58875;51.996;4.504;2023-02-15T06:47:24;2.52;84.03
71173;DHT22;58875;51.996;4.504;2023-02-15T06:49:49;2.63;84.58
71173;DHT22;58875;51.996;4.504;2023-02-15T06:52:15;2.67;84.38
71173;DHT22;58875;51.996;4.504;2023-02-15T06:54:40;2.66;84.26
71173;DHT22;58875;51.996;4.504;2023-02-15T06:57:06;2.66;84.18
71173;DHT22;58875;51.996;4.504;2023-02-15T06:59:31;2.66;84.16
71173;DHT22;58875;51.996;4.504;2023-02-15T07:01:57;2.63;84.13
71173;DHT22;58875;51.996;4.504;2023-02-15T07:04:23;2.65;84.19
71173;DHT22;58875;51.996;4.504;2023-02-15T07:06:49;2.71;84.69
71173;DHT22;58875;51.996;4.504;2023-02-15T07:09:15;2.75;84.48
71173;DHT22;58875;51.996;4.504;2023-02-15T07:11:41;2.80;84.28
71173;DHT22;58875;51.996;4.504;2023-02-15T07:14:25;2.84;84.23
71173;DHT22;58875;51.996;4.504;2023-02-15T07:16:51;2.86;84.39
71173;DHT22;58875;51.996;4.504;2023-02-15T07:19:16;2.92;84.25
71173;DHT22;58875;51.996;4.504;2023-02-15T07:21:42;2.96;84.17
71173;DHT22;58875;51.996;4.504;2023-02-15T07:24:09;2.99;84.60
71173;DHT22;58875;51.996;4.504;2023-02-15T07:26:34;3.06;84.71
71173;DHT22;58875;51.996;4.504;2023-02-15T07:29:00;3.11;84.35
71173;DHT22;58875;51.996;4.504;2023-02-15T07:31:25;3.15;84.24
71173;DHT22;58875;51.996;4.504;2023-02-15T07:33:51;3.21;84.20
71173;DHT22;58875;51.996;4.504;2023-02-15T07:36:16;3.23;84.09
71173;DHT22;58875;51.996;4.504;2023-02-15T07:38:42;3.24;84.28
71173;DHT22;58875;51.996;4.504;2023-02-15T07:41:13;3.31;84.24
71173;DHT22;58875;51.996;4.504;2023-02-15T07:43:42;3.42;84.18
71173;DHT22;58875;51.996;4.504;2023-02-15T07:46:13;3.47;84.14
71173;DHT22;58875;51.996;4.504;2023-02-15T07:48:42;3.50;84.09
71173;DHT22;58875;51.996;4.504;2023-02-15T07:51:10;3.58;84.32
71173;DHT22;58875;51.996;4.504;2023-02-15T07:53:36;3.65;84.44
71173;DHT22;58875;51.996;4.504;2023-02-15T07:56:05;3.72;84.49
71173;DHT22;58875;51.996;4.504;2023-02-15T07:58:32;3.75;84.25
71173;DHT22;58875;51.996;4.504;2023-02-15T08:01:34;3.87;84.35
71173;DHT22;58875;51.996;4.504;2023-02-15T08:04:02;3.99;84.39
71173;DHT22;58875;51.996;4.504;2023-02-15T08:06:32;4.00;84.33
71173;DHT22;58875;51.996;4.504;2023-02-15T08:08:58;4.20;84.39
71173;DHT22;58875;51.996;4.504;2023-02-15T08:11:26;4.32;84.04
71173;DHT22;58875;51.996;4.504;2023-02-15T08:14:02;4.43;84.07
71173;DHT22;58875;51.996;4.504;2023-02-15T08:16:42;4.53;83.83
71173;DHT22;58875;51.996;4.504;2023-02-15T08:19:14;4.81;83.65
71173;DHT22;58875;51.996;4.504;2023-02-15T08:21:43;5.33;82.79
71173;DHT22;58875;51.996;4.504;2023-02-15T08:24:11;5.66;81.81
71173;DHT22;58875;51.996;4.504;2023-02-15T08:26:38;5.63;81.96
71173;DHT22;58875;51.996;4.504;2023-02-15T08:29:05;5.61;82.26
71173;DHT22;58875;51.996;4.504;2023-02-15T08:31:32;5.75;82.16
71173;DHT22;58875;51.996;4.504;2023-02-15T08:33:58;5.98;81.55
71173;DHT22;58875;51.996;4.504;2023-02-15T08:36:27;6.18;81.51
71173;DHT22;58875;51.996;4.504;2023-02-15T08:38:55;6.42;80.65
71173;DHT22;58875;51.996;4.504;2023-02-15T08:41:27;6.73;79.88
71173;DHT22;58875;51.996;4.504;2023-02-15T08:43:57;6.94;79.50
71173;DHT22;58875;51.996;4.504;2023-02-15T08:46:24;7.25;78.80
71173;DHT22;58875;51.996;4.504;2023-02-15T08:48:50;7.48;78.33
71173;DHT22;58875;51.996;4.504;2023-02-15T08:51:18;7.50;78.13
71173;DHT22;58875;51.996;4.504;2023-02-15T08:53:48;7.41;78.38
71173;DHT22;58875;51.996;4.504;2023-02-15T08:56:19;7.14;79.19
71173;DHT22;58875;51.996;4.504;2023-02-15T08:58:46;6.83;79.81
71173;DHT22;58875;51.996;4.504;2023-02-15T09:01:14;6.57;80.03
71173;DHT22;58875;51.996;4.504;2023-02-15T09:03:44;6.54;81.04
71173;DHT22;58875;51.996;4.504;2023-02-15T09:06:10;6.60;81.56
71173;DHT22;58875;51.996;4.504;2023-02-15T09:08:36;6.70;81.73
71173;DHT22;58875;51.996;4.504;2023-02-15T09:11:08;6.70;81.50
71173;DHT22;58875;51.996;4.504;2023-02-15T09:13:34;6.75;81.88
71173;DHT22;58875;51.996;4.504;2023-02-15T09:16:02;6.75;81.76
71173;DHT22;58875;51.996;4.504;2023-02-15T09:18:32;6.91;81.69
71173;DHT22;58875;51.996;4.504;2023-02-15T09:21:10;7.08;82.02
71173;DHT22;58875;51.996;4.504;2023-02-15T09:23:36;7.25;81.93
71173;DHT22;58875;51.996;4.504;2023-02-15T09:26:04;7.28;81.54
71173;DHT22;58875;51.996;4.504;2023-02-15T09:28:33;7.36;81.72
71173;DHT22;58875;51.996;4.504;2023-02-15T09:31:09;7.50;81.70
71173;DHT22;58875;51.996;4.504;2023-02-15T09:33:36;7.51;81.25
71173;DHT22;58875;51.996;4.504;2023-02-15T09:36:13;7.45;80.55
71173;DHT22;58875;51.996;4.504;2023-02-15T09:38:39;7.72;81.38
71173;DHT22;58875;51.996;4.504;2023-02-15T10:10:11;8.79;75.97
71173;DHT22;58875;51.996;4.504;2023-02-15T10:13:16;8.75;74.18
71173;DHT22;58875;51.996;4.504;2023-02-15T10:18:45;8.93;73.13
71173;DHT22;58875;51.996;4.504;2023-02-15T10:21:20;8.88;72.16
71173;DHT22;58875;51.996;4.504;2023-02-15T10:29:29;9.26;72.34
71173;DHT22;58875;51.996;4.504;2023-02-15T10:32:11;9.53;71.02
71173;DHT22;58875;51.996;4.504;2023-02-15T10:34:51;9.54;70.49
71173;DHT22;58875;51.996;4.504;2023-02-15T10:48:32;9.77;69.23
71173;DHT22;58875;51.996;4.504;2023-02-15T10:51:10;9.78;68.50
71173;DHT22;58875;51.996;4.504;2023-02-15T11:01:43;10.46;67.59
71173;DHT22;58875;51.996;4.504;2023-02-15T11:04:14;10.57;66.79
71173;DHT22;58875;51.996;4.504;2023-02-15T11:06:53;10.60;66.43
71173;DHT22;58875;51.996;4.504;2023-02-15T11:09:24;10.55;66.92
71173;DHT22;58875;51.996;4.504;2023-02-15T11:11:57;10.70;66.96
71173;DHT22;58875;51.996;4.504;2023-02-15T11:17:08;10.66;65.35
71173;DHT22;58875;51.996;4.504;2023-02-15T11:19:40;10.62;66.16
71173;DHT22;58875;51.996;4.504;2023-02-15T11:22:10;10.56;65.74
71173;DHT22;58875;51.996;4.504;2023-02-15T11:24:42;10.63;66.51
71173;DHT22;58875;51.996;4.504;2023-02-15T11:27:30;10.92;65.78
71173;DHT22;58875;51.996;4.504;2023-02-15T11:30:05;11.08;65.35
71173;DHT22;58875;51.996;4.504;2023-02-15T11:32:40;11.04;64.24
71173;DHT22;58875;51.996;4.504;2023-02-15T11:40:02;10.69;65.97
71173;DHT22;58875;51.996;4.504;2023-02-15T11:42:31;10.48;66.14
71173;DHT22;58875;51.996;4.504;2023-02-15T11:47:48;10.63;66.10
71173;DHT22;58875;51.996;4.504;2023-02-15T11:50:22;10.57;66.64
71173;DHT22;58875;51.996;4.504;2023-02-15T11:52:56;10.77;66.04
71173;DHT22;58875;51.996;4.504;2023-02-15T11:55:23;11.07;65.84
71173;DHT22;58875;51.996;4.504;2023-02-15T12:02:52;11.17;64.47
71173;DHT22;58875;51.996;4.504;2023-02-15T12:05:23;11.26;64.43
71173;DHT22;58875;51.996;4.504;2023-02-15T12:07:58;11.16;64.43
71173;DHT22;58875;51.996;4.504;2023-02-15T12:10:41;11.27;63.91
71173;DHT22;58875;51.996;4.504;2023-02-15T12:13:15;11.32;63.67
71173;DHT22;58875;51.996;4.504;2023-02-15T12:15:44;11.38;64.02
71173;DHT22;58875;51.996;4.504;2023-02-15T12:18:34;11.59;63.54
71173;DHT22;58875;51.996;4.504;2023-02-15T12:21:14;11.86;63.70
71173;DHT22;58875;51.996;4.504;2023-02-15T12:23:47;11.93;61.46
71173;DHT22;58875;51.996;4.504;2023-02-15T12:26:14;11.95;62.06
71173;DHT22;58875;51.996;4.504;2023-02-15T12:28:44;11.75;62.73
71173;DHT22;58875;51.996;4.504;2023-02-15T12:31:26;11.86;63.13
71173;DHT22;58875;51.996;4.504;2023-02-15T12:33:56;11.85;63.03
71173;DHT22;58875;51.996;4.504;2023-02-15T12:36:40;11.96;63.27
71173;DHT22;58875;51.996;4.504;2023-02-15T12:39:21;12.08;62.09
71173;DHT22;58875;51.996;4.504;2023-02-15T12:44:22;11.79;63.12
71173;DHT22;58875;51.996;4.504;2023-02-15T12:49:37;12.12;62.88
71173;DHT22;58875;51.996;4.504;2023-02-15T12:54:43;12.19;62.12
71173;DHT22;58875;51.996;4.504;2023-02-15T12:57:29;11.98;63.17
71173;DHT22;58875;51.996;4.504;2023-02-15T13:00:01;11.92;63.42
71173;DHT22;58875;51.996;4.504;2023-02-15T13:02:36;11.85;63.24
71173;DHT22;58875;51.996;4.504;2023-02-15T13:05:29;11.75;63.94
71173;DHT22;58875;51.996;4.504;2023-02-15T13:10:41;11.74;64.11
71173;DHT22;58875;51.996;4.504;2023-02-15T13:13:19;11.89;64.26
71173;DHT22;58875;51.996;4.504;2023-02-15T13:15:54;12.06;63.71
71173;DHT22;58875;51.996;4.504;2023-02-15T13:18:32;11.96;63.12
71173;DHT22;58875;51.996;4.504;2023-02-15T13:21:19;11.83;64.02
71173;DHT22;58875;51.996;4.504;2023-02-15T13:23:48;11.89;63.88
71173;DHT22;58875;51.996;4.504;2023-02-15T13:26:22;11.96;63.15
71173;DHT22;58875;51.996;4.504;2023-02-15T13:28:54;11.92;63.57
71173;DHT22;58875;51.996;4.504;2023-02-15T13:31:24;11.93;63.41
71173;DHT22;58875;51.996;4.504;2023-02-15T13:34:15;11.96;63.66
71173;DHT22;58875;51.996;4.504;2023-02-15T13:36:47;12.06;63.50
71173;DHT22;58875;51.996;4.504;2023-02-15T13:39:43;12.06;62.89
71173;DHT22;58875;51.996;4.504;2023-02-15T13:47:43;12.17;62.77
71173;DHT22;58875;51.996;4.504;2023-02-15T13:50:45;12.36;63.14
71173;DHT22;58875;51.996;4.504;2023-02-15T13:55:58;12.54;62.38
71173;DHT22;58875;51.996;4.504;2023-02-15T14:10:00;12.78;61.81
71173;DHT22;58875;51.996;4.504;2023-02-15T14:15:26;12.70;61.65
71173;DHT22;58875;51.996;4.504;2023-02-15T14:18:15;12.65;61.77
71173;DHT22;58875;51.996;4.504;2023-02-15T14:29:16;12.60;62.19
71173;DHT22;58875;51.996;4.504;2023-02-15T14:31:49;12.53;61.83
71173;DHT22;58875;51.996;4.504;2023-02-15T14:34:44;12.43;62.27
71173;DHT22;58875;51.996;4.504;2023-02-15T14:37:13;12.43;62.30
71173;DHT22;58875;51.996;4.504;2023-02-15T14:43:21;12.43;62.64
71173;DHT22;58875;51.996;4.504;2023-02-15T14:48:31;12.40;61.98
71173;DHT22;58875;51.996;4.504;2023-02-15T14:50:59;12.34;61.68
71173;DHT22;58875;51.996;4.504;2023-02-15T14:53:37;12.36;61.36
71173;DHT22;58875;51.996;4.504;2023-02-15T14:58:55;12.43;61.68
71173;DHT22;58875;51.996;4.504;2023-02-15T15:01:33;12.39;61.84
71173;DHT22;58875;51.996;4.504;2023-02-15T15:04:07;12.29;62.11
71173;DHT22;58875;51.996;4.504;2023-02-15T15:06:43;12.29;62.63
71173;DHT22;58875;51.996;4.504;2023-02-15T15:11:49;12.29;63.08
71173;DHT22;58875;51.996;4.504;2023-02-15T15:17:01;12.27;63.63
71173;DHT22;58875;51.996;4.504;2023-02-15T15:22:20;12.26;64.12
71173;DHT22;58875;51.996;4.504;2023-02-15T15:24:48;12.25;63.86
71173;DHT22;58875;51.996;4.504;2023-02-15T15:32:58;12.00;64.66
71173;DHT22;58875;51.996;4.504;2023-02-15T15:35:35;12.05;65.12
71173;DHT22;58875;51.996;4.504;2023-02-15T15:44:57;11.81;65.62
71173;DHT22;58875;51.996;4.504;2023-02-15T15:49:33;11.76;65.82
71173;DHT22;58875;51.996;4.504;2023-02-15T15:52:15;11.76;65.92
71173;DHT22;58875;51.996;4.504;2023-02-15T15:54:44;11.71;66.26
71173;DHT22;58875;51.996;4.504;2023-02-15T15:59:46;11.54;67.44
71173;DHT22;58875;51.996;4.504;2023-02-15T16:02:16;11.57;67.47
71173;DHT22;58875;51.996;4.504;2023-02-15T16:04:43;11.42;67.66
71173;DHT22;58875;51.996;4.504;2023-02-15T16:10:02;11.24;67.91
71173;DHT22;58875;51.996;4.504;2023-02-15T16:12:31;11.16;67.96
71173;DHT22;58875;51.996;4.504;2023-02-15T16:15:02;11.16;67.99
71173;DHT22;58875;51.996;4.504;2023-02-15T16:17:32;11.18;67.93
71173;DHT22;58875;51.996;4.504;2023-02-15T16:20:20;11.04;68.33
71173;DHT22;58875;51.996;4.504;2023-02-15T16:28:11;10.95;68.62
71173;DHT22;58875;51.996;4.504;2023-02-15T16:30:38;10.90;68.77
71173;DHT22;58875;51.996;4.504;2023-02-15T16:33:08;10.89;69.05
71173;DHT22;58875;51.996;4.504;2023-02-15T16:35:37;10.86;69.49
71173;DHT22;58875;51.996;4.504;2023-02-15T16:38:10;10.92;69.58
71173;DHT22;58875;51.996;4.504;2023-02-15T16:40:43;10.89;69.66
71173;DHT22;58875;51.996;4.504;2023-02-15T16:43:32;10.81;69.96
71173;DHT22;58875;51.996;4.504;2023-02-15T16:48:56;10.79;69.89
71173;DHT22;58875;51.996;4.504;2023-02-15T16:51:27;10.76;70.01
71173;DHT22;58875;51.996;4.504;2023-02-15T16:53:56;10.72;70.14
71173;DHT22;58875;51.996;4.504;2023-02-15T16:56:30;10.67;70.19
71173;DHT22;58875;51.996;4.504;2023-02-15T16:58:57;10.73;69.82
71173;DHT22;58875;51.996;4.504;2023-02-15T17:01:30;10.72;69.19
71173;DHT22;58875;51.996;4.504;2023-02-15T17:09:24;10.66;68.83
71173;DHT22;58875;51.996;4.504;2023-02-15T17:11:53;10.67;68.65
71173;DHT22;58875;51.996;4.504;2023-02-15T17:14:21;10.66;68.31
71173;DHT22;58875;51.996;4.504;2023-02-15T17:17:01;10.60;68.15
71173;DHT22;58875;51.996;4.504;2023-02-15T17:19:49;10.63;68.16
71173;DHT22;58875;51.996;4.504;2023-02-15T17:22:24;10.60;67.81
71173;DHT22;58875;51.996;4.504;2023-02-15T17:25:02;10.53;68.00
71173;DHT22;58875;51.996;4.504;2023-02-15T17:27:31;10.59;67.97
71173;DHT22;58875;51.996;4.504;2023-02-15T17:30:01;10.50;68.21
71173;DHT22;58875;51.996;4.504;2023-02-15T17:32:30;10.59;68.05
71173;DHT22;58875;51.996;4.504;2023-02-15T17:35:06;10.57;68.19
71173;DHT22;58875;51.996;4.504;2023-02-15T17:40:21;10.52;68.51
71173;DHT22;58875;51.996;4.504;2023-02-15T17:42:47;10.53;68.46
71173;DHT22;58875;51.996;4.504;2023-02-15T17:45:13;10.46;68.72
71173;DHT22;58875;51.996;4.504;2023-02-15T17:47:39;10.53;68.47
71173;DHT22;58875;51.996;4.504;2023-02-15T17:50:10;10.53;68.50
71173;DHT22;58875;51.996;4.504;2023-02-15T17:52:40;10.55;68.47
71173;DHT22;58875;51.996;4.504;2023-02-15T17:55:16;10.56;68.30
71173;DHT22;58875;51.996;4.504;2023-02-15T17:58:02;10.46;68.55
71173;DHT22;58875;51.996;4.504;2023-02-15T18:00:30;10.49;68.73
71173;DHT22;58875;51.996;4.504;2023-02-15T18:03:15;10.42;68.94
71173;DHT22;58875;51.996;4.504;2023-02-15T18:06:00;10.45;68.95
71173;DHT22;58875;51.996;4.504;2023-02-15T18:08:43;10.46;68.84
71173;DHT22;58875;51.996;4.504;2023-02-15T18:11:28;10.44;68.97
71173;DHT22;58875;51.996;4.504;2023-02-15T18:14:08;10.35;69.12
71173;DHT22;58875;51.996;4.504;2023-02-15T18:16:40;10.29;69.36
71173;DHT22;58875;51.996;4.504;2023-02-15T18:19:23;10.34;69.31
71173;DHT22;58875;51.996;4.504;2023-02-15T18:21:51;10.32;69.32
71173;DHT22;58875;51.996;4.504;2023-02-15T18:24:23;10.31;69.26
71173;DHT22;58875;51.996;4.504;2023-02-15T18:26:50;10.28;69.44
71173;DHT22;58875;51.996;4.504;2023-02-15T18:29:15;10.22;69.64
71173;DHT22;58875;51.996;4.504;2023-02-15T18:31:43;10.24;69.26
71173;DHT22;58875;51.996;4.504;2023-02-15T18:34:31;10.22;69.42
71173;DHT22;58875;51.996;4.504;2023-02-15T18:37:05;10.21;69.45
71173;DHT22;58875;51.996;4.504;2023-02-15T18:39:37;10.19;69.32
71173;DHT22;58875;51.996;4.504;2023-02-15T18:44:46;10.17;69.16
71173;DHT22;58875;51.996;4.504;2023-02-15T18:47:12;10.19;69.00
71173;DHT22;58875;51.996;4.504;2023-02-15T18:49:37;10.15;68.98
71173;DHT22;58875;51.996;4.504;2023-02-15T18:52:14;10.18;68.97
71173;DHT22;58875;51.996;4.504;2023-02-15T18:54:40;10.07;69.34
71173;DHT22;58875;51.996;4.504;2023-02-15T18:57:14;10.05;69.40
71173;DHT22;58875;51.996;4.504;2023-02-15T18:59:46;10.07;69.32
71173;DHT22;58875;51.996;4.504;2023-02-15T19:02:18;10.01;69.44
71173;DHT22;58875;51.996;4.504;2023-02-15T19:04:45;9.99;69.50
71173;DHT22;58875;51.996;4.504;2023-02-15T19:07:25;9.95;69.46
71173;DHT22;58875;51.996;4.504;2023-02-15T19:10:00;10.07;69.28
71173;DHT22;58875;51.996;4.504;2023-02-15T19:12:30;9.98;69.35
71173;DHT22;58875;51.996;4.504;2023-02-15T19:15:25;9.93;69.32
71173;DHT22;58875;51.996;4.504;2023-02-15T19:17:52;9.84;69.49
71173;DHT22;58875;51.996;4.504;2023-02-15T19:20:24;9.78;69.70
71173;DHT22;58875;51.996;4.504;2023-02-15T19:22:52;9.78;69.48
71173;DHT22;58875;51.996;4.504;2023-02-15T19:25:22;9.77;69.60
71173;DHT22;58875;51.996;4.504;2023-02-15T19:27:49;9.74;69.35
71173;DHT22;58875;51.996;4.504;2023-02-15T19:30:20;9.71;69.42
71173;DHT22;58875;51.996;4.504;2023-02-15T19:32:49;9.71;69.11